createdAt,value
2022-11-29T00:01:04.572Z,82.42
2022-11-29T00:03:32.946Z,83.77
2022-11-29T00:06:08.209Z,84.98
2022-11-29T00:08:36.462Z,85.74
2022-11-29T00:11:08.323Z,86.03
2022-11-29T00:13:35.779Z,84.13
2022-11-29T00:16:08.566Z,83.89
2022-11-29T00:18:36.118Z,82.56
2022-11-29T00:21:07.467Z,83.21
2022-11-29T00:23:35.547Z,84.90
2022-11-29T00:26:04.968Z,85.17
2022-11-29T00:28:33.010Z,86.40
2022-11-29T00:31:02.019Z,85.68
2022-11-29T00:33:29.460Z,83.88
2022-11-29T00:36:01.319Z,82.56
2022-11-29T00:38:28.879Z,82.27
2022-11-29T00:40:56.439Z,82.85
2022-11-29T00:43:24.305Z,83.91
2022-11-29T00:45:52.327Z,85.68
2022-11-29T00:48:19.832Z,86.31
2022-11-29T00:50:47.392Z,85.65
2022-11-29T00:53:15.263Z,83.52
2022-11-29T00:55:50.217Z,82.33
2022-11-29T00:58:18.157Z,82.49
2022-11-29T01:00:45.718Z,82.83
2022-11-29T01:03:13.790Z,84.05
2022-11-29T01:05:42.571Z,85.48
2022-11-29T01:08:10.990Z,86.45
2022-11-29T01:10:38.616Z,86.07
2022-11-29T01:13:06.379Z,84.16
2022-11-29T01:15:34.261Z,82.96
2022-11-29T01:18:01.804Z,83.26
2022-11-29T01:20:29.402Z,83.64
2022-11-29T01:22:57.229Z,84.50
2022-11-29T01:25:24.996Z,85.22
2022-11-29T01:27:53.994Z,86.26
2022-11-29T01:30:21.647Z,86.40
2022-11-29T01:32:49.416Z,84.63
2022-11-29T01:35:17.175Z,83.25
2022-11-29T01:37:44.836Z,84.06
2022-11-29T01:40:13.577Z,84.24
2022-11-29T01:42:40.876Z,84.94
2022-11-29T01:45:24.525Z,85.82
2022-11-29T01:47:54.685Z,86.63
2022-11-29T01:50:22.015Z,85.79
2022-11-29T01:52:49.645Z,83.90
2022-11-29T01:55:17.461Z,82.56
2022-11-29T01:57:45.685Z,82.63
2022-11-29T02:00:16.732Z,83.72
2022-11-29T02:02:51.075Z,85.19
2022-11-29T02:05:19.013Z,86.33
2022-11-29T02:07:53.978Z,86.37
2022-11-29T02:10:25.616Z,83.91
2022-11-29T02:12:53.165Z,83.14
2022-11-29T02:15:43.468Z,83.83
2022-11-29T02:18:14.475Z,84.00
2022-11-29T02:21:03.564Z,84.43
2022-11-29T02:24:06.954Z,85.69
2022-11-29T02:26:59.092Z,86.85
2022-11-29T02:30:05.159Z,84.40
2022-11-29T02:33:11.735Z,82.73
2022-11-29T02:36:01.302Z,83.08
2022-11-29T02:38:53.742Z,84.29
2022-11-29T02:41:40.762Z,85.40
2022-11-29T02:44:40.064Z,85.38
2022-11-29T02:47:14.810Z,85.96
2022-11-29T02:50:05.180Z,85.22
2022-11-29T02:52:57.315Z,82.91
2022-11-29T02:55:28.458Z,82.20
2022-11-29T02:58:31.962Z,82.23
2022-11-29T03:01:16.170Z,83.53
2022-11-29T03:03:51.858Z,86.39
2022-11-29T03:06:41.037Z,87.77
2022-11-29T03:09:34.901Z,87.48
2022-11-29T03:12:14.652Z,85.97
2022-11-29T03:15:08.770Z,84.17
2022-11-29T03:17:42.839Z,82.54
2022-11-29T03:20:44.806Z,82.52
2022-11-29T03:23:23.151Z,83.34
2022-11-29T03:25:50.829Z,84.26
2022-11-29T03:28:38.242Z,85.55
2022-11-29T03:31:59.482Z,86.12
2022-11-29T03:34:45.097Z,85.27
2022-11-29T03:37:21.480Z,82.41
2022-11-29T03:39:56.488Z,81.82
2022-11-29T03:42:26.507Z,82.18
2022-11-29T03:45:15.101Z,82.33
2022-11-29T03:47:50.907Z,83.12
2022-11-29T03:50:21.300Z,84.48
2022-11-29T03:52:54.865Z,85.45
2022-11-29T03:55:22.031Z,85.27
2022-11-29T03:58:23.563Z,83.62
2022-11-29T04:01:22.150Z,82.08
2022-11-29T04:04:11.297Z,82.17
2022-11-29T04:07:01.928Z,83.02
2022-11-29T04:09:42.460Z,84.00
2022-11-29T04:12:37.724Z,84.82
2022-11-29T04:15:17.660Z,84.92
2022-11-29T04:18:11.024Z,84.51
2022-11-29T04:20:55.354Z,81.95
2022-11-29T04:23:31.096Z,81.22
2022-11-29T04:26:35.114Z,81.68
2022-11-29T04:29:15.102Z,82.81
2022-11-29T04:31:51.414Z,84.09
2022-11-29T04:34:40.457Z,84.30
2022-11-29T04:37:10.227Z,85.08
2022-11-29T04:40:02.624Z,84.61
2022-11-29T04:43:00.745Z,82.54
2022-11-29T04:45:43.409Z,81.85
2022-11-29T04:48:24.384Z,81.61
2022-11-29T04:51:19.550Z,82.39
2022-11-29T04:54:02.987Z,83.48
2022-11-29T04:56:33.035Z,83.84
2022-11-29T04:59:19.145Z,84.22
2022-11-29T05:02:11.793Z,83.94
2022-11-29T05:04:51.468Z,81.91
2022-11-29T05:07:57.648Z,81.30
2022-11-29T05:10:31.738Z,81.85
2022-11-29T05:13:33.625Z,82.30
2022-11-29T05:16:22.613Z,83.20
2022-11-29T05:18:49.992Z,83.81
2022-11-29T05:21:41.785Z,83.52
2022-11-29T05:24:33.676Z,81.61
2022-11-29T05:27:25.757Z,80.58
2022-11-29T05:30:06.230Z,81.27
2022-11-29T05:32:42.885Z,81.71
2022-11-29T05:35:32.869Z,82.38
2022-11-29T05:38:15.226Z,83.16
2022-11-29T05:40:53.052Z,83.80
2022-11-29T05:43:51.292Z,83.18
2022-11-29T05:46:24.407Z,81.90
2022-11-29T05:49:09.446Z,81.64
2022-11-29T05:52:05.141Z,81.99
2022-11-29T05:54:37.874Z,82.77
2022-11-29T05:57:15.284Z,83.62
2022-11-29T05:59:42.773Z,84.19
2022-11-29T06:02:23.645Z,82.87
2022-11-29T06:04:56.974Z,81.76
2022-11-29T06:07:49.215Z,81.54
2022-11-29T06:10:17.969Z,81.92
2022-11-29T06:12:49.612Z,82.75
2022-11-29T06:15:32.178Z,83.25
2022-11-29T06:18:24.346Z,83.95
2022-11-29T06:21:14.436Z,83.47
2022-11-29T06:23:50.862Z,81.47
2022-11-29T06:26:44.518Z,80.87
2022-11-29T06:29:33.103Z,81.04
2022-11-29T06:32:07.993Z,81.76
2022-11-29T06:35:05.561Z,82.42
2022-11-29T06:37:40.177Z,83.43
2022-11-29T06:40:11.961Z,83.33
2022-11-29T06:42:40.745Z,81.63
2022-11-29T06:45:12.446Z,80.92
2022-11-29T06:47:49.084Z,81.19
2022-11-29T06:50:31.873Z,81.69
2022-11-29T06:53:02.722Z,82.44
2022-11-29T06:55:57.911Z,83.06
2022-11-29T06:58:43.840Z,82.36
2022-11-29T07:01:50.768Z,81.60
2022-11-29T07:04:46.264Z,81.27
2022-11-29T07:07:18.745Z,81.64
2022-11-29T07:09:49.227Z,82.17
2022-11-29T07:12:17.947Z,82.73
2022-11-29T07:14:46.431Z,82.00
2022-11-29T07:17:23.169Z,80.41
2022-11-29T07:20:00.464Z,80.28
2022-11-29T07:22:47.601Z,80.47
2022-11-29T07:25:55.106Z,80.89
2022-11-29T07:28:34.661Z,81.70
2022-11-29T07:31:11.282Z,81.64
2022-11-29T07:33:57.216Z,79.91
2022-11-29T07:36:34.452Z,79.46
2022-11-29T07:39:24.803Z,80.09
2022-11-29T07:42:16.290Z,80.45
2022-11-29T07:45:04.960Z,81.19
2022-11-29T07:47:35.675Z,81.28
2022-11-29T07:50:03.760Z,79.93
2022-11-29T07:52:32.212Z,79.22
2022-11-29T07:55:04.420Z,79.31
2022-11-29T07:57:32.343Z,79.78
2022-11-29T08:00:00.507Z,80.50
2022-11-29T08:02:29.385Z,81.20
2022-11-29T08:04:57.963Z,80.47
2022-11-29T08:07:25.554Z,78.94
2022-11-29T08:09:52.877Z,78.45
2022-11-29T08:12:20.504Z,78.67
2022-11-29T08:14:48.077Z,79.10
2022-11-29T08:17:16.038Z,79.67
2022-11-29T08:19:45.949Z,80.47
2022-11-29T08:22:13.387Z,80.27
2022-11-29T08:24:42.076Z,78.76
2022-11-29T08:27:10.889Z,78.34
2022-11-29T08:29:38.186Z,78.28
2022-11-29T08:32:05.985Z,78.99
2022-11-29T08:34:34.991Z,79.48
2022-11-29T08:37:03.121Z,80.14
2022-11-29T08:39:34.232Z,79.93
2022-11-29T08:42:03.326Z,78.56
2022-11-29T08:44:31.852Z,77.75
2022-11-29T08:47:18.986Z,77.59
2022-11-29T08:50:02.691Z,78.07
2022-11-29T08:52:52.368Z,78.64
2022-11-29T08:55:20.575Z,79.47
2022-11-29T08:57:48.909Z,78.64
2022-11-29T09:00:17.960Z,76.98
2022-11-29T09:02:45.389Z,76.15
2022-11-29T09:05:15.596Z,76.53
2022-11-29T09:07:44.209Z,77.21
2022-11-29T09:10:11.802Z,77.79
2022-11-29T09:12:39.781Z,78.24
2022-11-29T09:15:10.058Z,79.35
2022-11-29T09:17:37.699Z,79.18
2022-11-29T09:20:06.375Z,77.67
2022-11-29T09:22:35.694Z,76.82
2022-11-29T09:25:03.677Z,76.75
2022-11-29T09:27:31.918Z,77.29
2022-11-29T09:29:59.579Z,77.95
2022-11-29T09:32:27.969Z,78.58
2022-11-29T09:34:57.989Z,79.33
2022-11-29T09:37:26.555Z,78.30
2022-11-29T09:39:54.484Z,76.90
2022-11-29T09:42:44.135Z,76.94
2022-11-29T09:45:18.193Z,77.26
2022-11-29T09:48:22.272Z,77.88
2022-11-29T09:51:14.503Z,78.67
2022-11-29T09:53:51.254Z,78.88
2022-11-29T09:56:30.191Z,77.76
2022-11-29T09:58:59.886Z,77.07
2022-11-29T10:01:37.127Z,77.32
2022-11-29T10:04:08.632Z,77.52
2022-11-29T10:06:44.833Z,78.42
2022-11-29T10:09:13.515Z,79.11
2022-11-29T10:12:14.847Z,77.92
2022-11-29T10:15:01.380Z,76.59
2022-11-29T10:18:02.299Z,76.22
2022-11-29T10:20:41.400Z,77.29
2022-11-29T10:23:47.900Z,77.94
2022-11-29T10:26:17.906Z,78.90
2022-11-29T10:28:49.990Z,78.65
2022-11-29T10:31:28.858Z,77.36
2022-11-29T10:34:01.558Z,77.18
2022-11-29T10:36:50.776Z,77.31
2022-11-29T10:39:41.781Z,78.01
2022-11-29T10:42:35.505Z,78.93
2022-11-29T10:45:06.019Z,79.74
2022-11-29T10:47:35.742Z,77.45
2022-11-29T10:50:05.956Z,76.37
2022-11-29T10:52:37.661Z,76.11
2022-11-29T10:55:09.928Z,76.36
2022-11-29T10:57:49.941Z,76.87
2022-11-29T11:00:19.876Z,77.64
2022-11-29T11:02:49.988Z,78.80
2022-11-29T11:05:26.245Z,77.71
2022-11-29T11:07:59.974Z,76.51
2022-11-29T11:18:33.037Z,78.13
2022-11-29T11:21:03.918Z,78.71
2022-11-29T11:23:33.272Z,77.45
2022-11-29T11:26:07.802Z,76.37
2022-11-29T11:29:02.196Z,76.38
2022-11-29T11:31:32.172Z,76.78
2022-11-29T11:34:27.594Z,77.32
2022-11-29T11:37:15.244Z,77.84
2022-11-29T11:39:43.468Z,78.79
2022-11-29T11:42:38.220Z,77.37
2022-11-29T11:45:11.615Z,76.20
2022-11-29T11:47:59.238Z,76.55
2022-11-29T11:50:35.029Z,77.58
2022-11-29T11:53:20.572Z,78.26
2022-11-29T11:55:57.761Z,79.16
2022-11-29T11:58:52.054Z,79.23
2022-11-29T12:01:25.650Z,77.70
2022-11-29T12:03:59.042Z,77.05
2022-11-29T12:06:50.045Z,77.36
2022-11-29T12:10:00.277Z,78.08
2022-11-29T12:12:33.087Z,79.19
2022-11-29T12:15:01.903Z,80.24
2022-11-29T12:17:47.282Z,79.90
2022-11-29T12:20:45.330Z,78.67
2022-11-29T12:23:13.423Z,78.71
2022-11-29T12:26:05.662Z,79.52
2022-11-29T12:28:40.471Z,80.35
2022-11-29T12:31:44.485Z,81.32
2022-11-29T12:34:43.230Z,79.63
2022-11-29T12:37:29.884Z,78.80
2022-11-29T12:40:33.687Z,78.96
2022-11-29T12:43:15.683Z,80.01
2022-11-29T12:46:01.817Z,80.82
2022-11-29T12:48:35.935Z,81.49
2022-11-29T12:51:56.506Z,80.61
2022-11-29T12:54:45.293Z,79.70
2022-11-29T12:57:32.712Z,80.31
2022-11-29T13:00:11.910Z,81.13
2022-11-29T13:02:49.640Z,81.95
2022-11-29T13:05:30.271Z,80.78
2022-11-29T13:08:17.291Z,79.96
2022-11-29T13:11:17.035Z,79.91
2022-11-29T13:14:34.597Z,80.69
2022-11-29T13:16:59.767Z,81.93
2022-11-29T13:19:27.233Z,82.10
2022-11-29T13:22:07.558Z,80.80
2022-11-29T13:24:43.499Z,80.00
2022-11-29T13:27:22.005Z,79.94
2022-11-29T13:29:49.495Z,80.52
2022-11-29T13:33:01.764Z,81.30
2022-11-29T13:35:50.420Z,82.12
2022-11-29T13:38:40.234Z,81.57
2022-11-29T13:41:32.369Z,80.56
2022-11-29T13:44:00.372Z,80.63
2022-11-29T13:46:39.468Z,81.25
2022-11-29T13:49:09.791Z,81.89
2022-11-29T13:51:37.768Z,82.77
2022-11-29T13:54:06.363Z,81.91
2022-11-29T13:56:46.215Z,80.63
2022-11-29T13:59:31.528Z,80.21
2022-11-29T14:01:59.469Z,80.74
2022-11-29T14:04:29.979Z,81.18
2022-11-29T14:07:12.553Z,81.81
2022-11-29T14:10:01.819Z,82.66
2022-11-29T14:12:37.372Z,82.53
2022-11-29T14:15:23.726Z,81.24
2022-11-29T14:17:56.561Z,80.42
2022-11-29T14:20:23.953Z,80.57
2022-11-29T14:23:06.811Z,81.21
2022-11-29T14:25:51.151Z,81.95
2022-11-29T14:28:22.407Z,82.68
2022-11-29T14:31:02.078Z,82.46
2022-11-29T14:33:49.877Z,81.06
2022-11-29T14:36:32.863Z,80.65
2022-11-29T14:39:32.233Z,81.09
2022-11-29T14:42:14.731Z,81.99
2022-11-29T14:44:53.108Z,83.06
2022-11-29T14:47:26.188Z,82.77
2022-11-29T14:49:55.295Z,81.11
2022-11-29T14:52:55.658Z,80.45
2022-11-29T14:55:26.188Z,80.57
2022-11-29T14:58:17.942Z,81.25
2022-11-29T15:00:48.491Z,81.92
2022-11-29T16:40:28.810Z,94.60
2022-11-29T16:43:08.081Z,94.25
2022-11-29T16:45:36.670Z,91.55
2022-11-29T16:48:27.536Z,89.18
2022-11-29T16:51:15.879Z,87.13
2022-11-29T16:53:51.526Z,87.02
2022-11-29T16:56:23.427Z,87.31
2022-11-29T16:59:20.767Z,86.81
2022-11-29T17:01:51.598Z,84.96
2022-11-29T17:04:23.402Z,83.73
2022-11-29T17:06:56.046Z,83.84
2022-11-29T17:09:30.075Z,84.79
2022-11-29T17:12:00.806Z,85.32
2022-11-29T17:14:31.276Z,83.76
2022-11-29T17:17:01.892Z,82.66
2022-11-29T17:19:29.887Z,82.68
2022-11-29T17:21:58.264Z,83.60
2022-11-29T17:24:25.835Z,83.95
2022-11-29T17:26:53.488Z,84.77
2022-11-29T17:29:21.352Z,83.54
2022-11-29T17:31:56.779Z,82.79
2022-11-29T17:34:24.457Z,82.70
2022-11-29T17:36:52.372Z,83.19
2022-11-29T17:39:21.318Z,83.84
2022-11-29T17:41:48.876Z,84.28
2022-11-29T17:44:16.351Z,83.22
2022-11-29T17:46:47.680Z,82.27
2022-11-29T17:49:15.238Z,82.28
2022-11-29T17:51:52.602Z,82.63
2022-11-29T17:54:21.950Z,83.35
2022-11-29T17:56:50.012Z,84.03
2022-11-29T17:59:17.362Z,84.26
2022-11-29T18:01:46.972Z,82.52
2022-11-29T18:04:16.055Z,81.91
2022-11-29T18:06:45.395Z,82.09
2022-11-29T18:09:12.914Z,82.32
2022-11-29T18:11:48.297Z,83.04
2022-11-29T18:14:22.588Z,83.43
2022-11-29T18:16:50.219Z,82.04
2022-11-29T18:19:19.336Z,81.11
2022-11-29T18:21:47.502Z,81.00
2022-11-29T18:24:14.859Z,81.82
2022-11-29T18:26:45.085Z,82.24
2022-11-29T18:29:12.741Z,82.94
2022-11-29T18:31:42.252Z,81.67
2022-11-29T18:34:10.429Z,80.81
2022-11-29T18:36:42.465Z,80.96
2022-11-29T18:39:19.568Z,81.70
2022-11-29T18:41:48.560Z,82.18
2022-11-29T18:44:18.268Z,82.91
2022-11-29T18:46:45.841Z,82.44
2022-11-29T18:49:14.920Z,80.88
2022-11-29T18:51:44.066Z,80.61
2022-11-29T18:54:12.597Z,80.71
2022-11-29T18:56:40.060Z,81.26
2022-11-29T18:59:14.067Z,81.91
2022-11-29T19:01:42.099Z,82.59
2022-11-29T19:04:12.052Z,81.04
2022-11-29T19:06:40.849Z,80.09
2022-11-29T19:09:13.308Z,80.17
2022-11-29T19:11:40.667Z,80.81
2022-11-29T19:14:12.482Z,81.48
2022-11-29T19:16:41.831Z,82.35
2022-11-29T19:19:09.286Z,81.60
2022-11-29T19:21:37.561Z,80.70
2022-11-29T19:24:16.993Z,80.31
2022-11-29T19:26:46.110Z,80.56
2022-11-29T19:29:13.961Z,81.31
2022-11-29T19:31:42.245Z,82.07
2022-11-29T19:34:09.589Z,82.22
2022-11-29T19:36:43.375Z,80.57
2022-11-29T19:39:16.282Z,80.04
2022-11-29T19:41:47.322Z,80.42
2022-11-29T19:44:14.877Z,81.08
2022-11-29T19:46:47.817Z,81.82
2022-11-29T19:49:15.223Z,82.33
2022-11-29T19:51:42.886Z,81.68
2022-11-29T19:54:11.570Z,80.29
2022-11-29T19:56:39.346Z,79.61
2022-11-29T19:59:07.716Z,79.82
2022-11-29T20:01:43.430Z,80.37
2022-11-29T20:04:12.770Z,80.80
2022-11-29T20:06:40.631Z,81.59
2022-11-29T20:09:10.038Z,81.93
2022-11-29T20:11:37.788Z,80.63
2022-11-29T20:14:07.052Z,79.70
2022-11-29T20:16:34.549Z,80.00
2022-11-29T20:19:02.132Z,79.88
2022-11-29T20:21:31.618Z,80.64
2022-11-29T20:24:03.795Z,80.94
2022-11-29T20:26:32.875Z,81.42
2022-11-29T20:29:01.871Z,81.84
2022-11-29T20:31:30.988Z,80.71
2022-11-29T20:33:58.729Z,79.85
2022-11-29T20:37:07.145Z,79.43
2022-11-29T20:39:44.407Z,79.90
2022-11-29T20:42:50.313Z,80.68
2022-11-29T20:45:18.461Z,81.26
2022-11-29T20:47:51.158Z,81.86
2022-11-29T20:50:29.551Z,81.37
2022-11-29T20:53:03.435Z,79.80
2022-11-29T20:55:31.641Z,79.13
2022-11-29T20:57:59.499Z,79.69
2022-11-29T21:00:26.976Z,80.01
2022-11-29T21:02:54.617Z,80.79
2022-11-29T21:05:22.071Z,81.49
2022-11-29T21:07:50.002Z,81.50
2022-11-29T21:10:19.042Z,79.60
2022-11-29T21:12:48.340Z,78.80
2022-11-29T21:15:16.578Z,79.03
2022-11-29T21:17:45.917Z,79.22
2022-11-29T21:20:24.535Z,80.00
2022-11-29T21:23:06.121Z,80.97
2022-11-29T21:25:53.339Z,81.77
2022-11-29T21:28:21.101Z,80.21
2022-11-29T21:30:49.625Z,79.64
2022-11-29T21:33:17.551Z,79.60
2022-11-29T21:35:45.106Z,80.44
2022-11-29T21:38:14.822Z,80.86
2022-11-29T21:40:42.385Z,81.45
2022-11-29T21:43:09.849Z,81.79
2022-11-29T21:45:38.495Z,80.55
2022-11-29T21:48:28.912Z,79.64
2022-11-29T21:50:56.581Z,79.63
2022-11-29T21:53:24.560Z,80.04
2022-11-29T21:55:59.237Z,80.62
2022-11-29T21:58:28.060Z,81.35
2022-11-29T22:00:55.416Z,81.95
2022-11-29T22:03:23.074Z,82.16
2022-11-29T22:05:50.838Z,80.88
2022-11-29T22:08:20.268Z,79.49
2022-11-29T22:10:48.004Z,79.36
2022-11-29T22:13:15.666Z,79.85
2022-11-29T22:15:43.296Z,80.18
2022-11-29T22:18:10.885Z,80.57
2022-11-29T22:20:38.550Z,81.18
2022-11-29T22:23:06.105Z,81.74
2022-11-29T22:25:33.766Z,80.77
2022-11-29T22:28:01.430Z,79.68
2022-11-29T22:30:29.297Z,79.25
2022-11-29T22:32:57.057Z,79.61
2022-11-29T22:35:24.721Z,80.39
2022-11-29T22:37:52.279Z,81.33
2022-11-29T22:40:19.841Z,81.64
2022-11-29T22:42:47.399Z,82.10
2022-11-29T22:45:15.400Z,82.29
2022-11-29T22:47:42.827Z,80.88
2022-11-29T22:50:11.097Z,80.08
2022-11-29T22:52:38.470Z,79.78
2022-11-29T22:55:06.845Z,80.23
2022-11-29T22:57:34.290Z,80.72
2022-11-29T23:00:02.467Z,81.07
2022-11-29T23:02:30.579Z,81.58
2022-11-29T23:04:58.296Z,82.26
2022-11-29T23:07:26.186Z,80.54
2022-11-29T23:09:55.461Z,79.73
2022-11-29T23:12:23.841Z,79.77
2022-11-29T23:14:55.959Z,80.25
2022-11-29T23:17:24.386Z,80.85
2022-11-29T23:19:51.844Z,81.75
2022-11-29T23:22:20.733Z,82.42
2022-11-29T23:24:48.813Z,82.04
2022-11-29T23:27:16.779Z,80.57
2022-11-29T23:29:44.742Z,79.83
2022-11-29T23:32:12.216Z,80.15
2022-11-29T23:34:40.062Z,80.25
2022-11-29T23:37:07.522Z,80.55
2022-11-29T23:39:35.182Z,80.94
2022-11-29T23:42:02.639Z,81.58
2022-11-29T23:44:30.938Z,81.71
2022-11-29T23:46:58.371Z,80.54
2022-11-29T23:49:26.134Z,80.04
2022-11-29T23:51:53.806Z,79.26
2022-11-29T23:54:22.898Z,79.73
2022-11-29T23:56:50.449Z,80.97
2022-11-29T23:59:18.111Z,81.34
